Time;durP1;ratioP1;P1;durP2;ratioP2;P2;SDS_P1;SDS_P2;PMS_P1;PMS_P2;Temp;Humidity;BMP_temperature;BMP_pressure;BME280_temperature;BME280_humidity;BME280_pressure;Samples;Min_cycle;Max_cycle;Signal;HPM_P1;HPM_P2
2022/08/29 00:01:22;;;;;;;7.78;2.67;;;;;;;21.27;43.70;101219.94;5055927;28;20045;-66
2022/08/29 00:03:54;;;;;;;7.13;2.00;;;;;;;21.32;43.88;101222.44;5057997;28;20045;-66
2022/08/29 00:06:21;;;;;;;6.03;2.00;;;;;;;21.34;43.61;101220.84;5075738;28;20096;-66
2022/08/29 00:08:49;;;;;;;7.97;2.00;;;;;;;21.27;43.29;101229.13;5056197;28;20049;-67
2022/08/29 00:11:16;;;;;;;6.95;1.98;;;;;;;21.27;44.11;101218.75;5055505;28;20483;-66
2022/08/29 00:13:44;;;;;;;6.35;2.10;;;;;;;21.35;43.45;101218.88;5056291;28;20057;-66
2022/08/29 00:16:11;;;;;;;6.70;2.00;;;;;;;21.21;43.37;101216.63;5055349;28;20049;-66
2022/08/29 00:18:40;;;;;;;6.20;1.95;;;;;;;20.98;44.31;101215.78;5056032;28;20063;-66
2022/08/29 00:21:07;;;;;;;6.50;2.20;;;;;;;20.80;45.04;101218.22;5054908;28;20503;-66
2022/08/29 00:23:34;;;;;;;7.00;1.70;;;;;;;20.75;44.48;101212.94;5030893;28;20056;-66
2022/08/29 00:26:02;;;;;;;7.85;2.03;;;;;;;20.91;44.55;101218.44;5074804;28;20052;-66
2022/08/29 00:28:29;;;;;;;10.88;2.22;;;;;;;20.83;44.57;101214.72;5075856;28;20048;-66
2022/08/29 00:30:56;;;;;;;7.25;1.98;;;;;;;20.97;44.13;101219.75;5075294;28;20150;-66
2022/08/29 00:33:24;;;;;;;9.75;1.98;;;;;;;20.82;44.64;101220.66;5076005;28;20059;-66
2022/08/29 00:35:51;;;;;;;6.68;2.17;;;;;;;20.82;44.66;101215.06;5075019;28;20052;-66
2022/08/29 00:38:18;;;;;;;6.70;1.83;;;;;;;20.90;44.69;101212.00;5057724;28;20056;-66
2022/08/29 00:40:52;;;;;;;5.60;2.17;;;;;;;20.97;44.48;101217.75;5074684;28;20049;-66
2022/08/29 00:43:23;;;;;;;6.50;1.73;;;;;;;20.76;44.91;101217.38;5074583;28;20049;-66
2022/08/29 00:46:05;;;;;;;6.10;1.92;;;;;;;20.64;44.90;101223.09;5074431;28;20063;-67
2022/08/29 00:48:33;;;;;;;5.60;2.30;;;;;;;20.76;45.41;101219.34;5057617;28;20068;-66
2022/08/29 00:51:06;;;;;;;8.45;2.05;;;;;;;21.01;44.53;101217.84;5056581;28;20071;-66
2022/08/29 00:53:37;;;;;;;9.65;2.08;;;;;;;21.03;44.41;101215.50;5075506;28;20052;-66
2022/08/29 00:56:07;;;;;;;4.78;1.70;;;;;;;21.13;44.31;101217.69;5056197;28;20060;-65
2022/08/29 00:58:40;;;;;;;7.57;2.25;;;;;;;21.05;44.23;101224.34;5075168;28;20048;-66
2022/08/29 01:01:07;;;;;;;8.10;1.75;;;;;;;21.17;44.45;101221.34;5056589;28;20055;-66
2022/08/29 01:03:35;;;;;;;7.22;1.65;;;;;;;21.07;44.27;101217.19;5075126;28;20439;-66
2022/08/29 01:06:12;;;;;;;5.38;1.60;;;;;;;20.99;44.43;101225.84;5054357;28;20068;-66
2022/08/29 01:08:40;;;;;;;5.05;1.67;;;;;;;20.85;44.96;101225.53;5054738;28;20068;-65
2022/08/29 01:13:57;;;;;;;6.13;1.98;;;;;;;20.89;44.42;101204.81;5055074;28;20048;-66
2022/08/29 01:16:26;;;;;;;6.28;1.90;;;;;;;20.97;44.78;101200.16;5054190;28;20048;-67
2022/08/29 01:18:57;;;;;;;5.35;1.73;;;;;;;20.93;44.62;101202.06;5037003;28;20403;-66
2022/08/29 01:21:27;;;;;;;6.65;1.92;;;;;;;21.05;44.76;101199.13;5020007;28;20045;-66
2022/08/29 01:24:10;;;;;;;8.32;1.77;;;;;;;20.96;44.54;101202.13;5067364;28;20057;-66
2022/08/29 01:26:37;;;;;;;8.43;1.92;;;;;;;21.04;44.26;101198.31;5055804;28;20052;-65
2022/08/29 01:29:04;;;;;;;5.70;1.70;;;;;;;21.14;43.80;101196.91;5056908;28;20045;-65
2022/08/29 01:31:50;;;;;;;5.38;1.90;;;;;;;21.05;44.22;101196.31;5061125;28;20045;-65
2022/08/29 01:34:26;;;;;;;6.07;1.83;;;;;;;20.84;44.45;101202.31;5054818;28;20053;-65
2022/08/29 01:36:56;;;;;;;5.85;1.80;;;;;;;20.83;44.53;101200.69;5026617;28;20063;-66
2022/08/29 01:39:26;;;;;;;7.70;2.00;;;;;;;20.92;44.60;101206.84;5036771;28;20059;-66
2022/08/29 01:41:55;;;;;;;;;;;;;;;20.90;44.64;101202.81;5036013;28;20504;-66
2022/08/29 01:44:25;;;;;;;8.52;1.60;;;;;;;20.89;44.58;101199.19;5054583;28;20451;-66
2022/08/29 01:46:58;;;;;;;6.70;1.40;;;;;;;20.84;44.32;101195.91;5053512;28;20068;-65
2022/08/29 01:49:34;;;;;;;8.77;1.83;;;;;;;20.72;44.44;101198.84;5054484;28;20056;-66
2022/08/29 01:52:07;;;;;;;12.75;2.38;;;;;;;20.81;44.95;101188.25;5054159;28;20052;-65
2022/08/29 01:54:35;;;;;;;6.95;1.83;;;;;;;20.99;44.34;101186.63;5054610;28;20385;-67
2022/08/29 01:57:02;;;;;;;4.28;1.40;;;;;;;20.99;43.92;101200.63;5053763;28;20060;-66
2022/08/29 01:59:30;;;;;;;5.38;1.45;;;;;;;21.02;44.82;101192.28;5036489;28;20053;-66
2022/08/29 02:02:13;;;;;;;8.93;1.70;;;;;;;20.87;44.36;101190.34;5054022;28;20049;-66
2022/08/29 02:04:40;;;;;;;7.65;1.85;;;;;;;20.93;44.40;101188.88;5051956;28;20455;-66
2022/08/29 02:07:08;;;;;;;8.13;1.60;;;;;;;20.92;44.17;101197.66;5061356;28;20059;-66
2022/08/29 02:09:39;;;;;;;5.95;1.60;;;;;;;20.48;45.37;101193.56;5054343;28;20060;-65
2022/08/29 02:12:13;;;;;;;8.15;1.80;;;;;;;20.63;45.35;101192.66;5039430;28;20045;-66
2022/08/29 02:14:41;;;;;;;9.35;1.90;;;;;;;20.54;44.80;101190.09;5040577;28;20388;-67
2022/08/29 02:17:08;;;;;;;6.43;1.75;;;;;;;20.38;45.57;101189.34;5039672;28;20063;-68
2022/08/29 02:19:36;;;;;;;6.57;1.92;;;;;;;20.36;45.00;101191.75;5058085;28;20483;-67
2022/08/29 02:22:04;;;;;;;7.07;1.90;;;;;;;20.47;45.78;101189.97;5057506;28;20045;-66
2022/08/29 02:24:32;;;;;;;6.85;1.70;;;;;;;20.49;45.34;101193.19;5057849;28;20040;-66
2022/08/29 02:26:59;;;;;;;7.00;2.03;;;;;;;20.41;46.14;101185.03;5057273;28;20049;-66
2022/08/29 02:29:27;;;;;;;5.20;1.55;;;;;;;20.41;46.80;101179.44;5056988;28;20053;-66
2022/08/29 02:32:06;;;;;;;7.25;1.90;;;;;;;20.53;45.45;101180.09;5057548;28;20045;-67
2022/08/29 02:34:34;;;;;;;7.65;1.83;;;;;;;20.51;45.73;101181.63;5040279;28;20059;-65
2022/08/29 02:37:04;;;;;;;6.63;1.80;;;;;;;20.53;45.61;101182.06;5057206;28;20049;-66
2022/08/29 02:39:33;;;;;;;6.07;1.80;;;;;;;20.27;46.14;101181.94;5039417;28;20057;-66
2022/08/29 02:42:01;;;;;;;7.63;1.55;;;;;;;20.20;45.87;101176.19;5057054;28;20291;-65
2022/08/29 02:44:28;;;;;;;6.78;2.00;;;;;;;20.37;46.33;101181.34;5057578;28;20075;-66
2022/08/29 02:46:55;;;;;;;7.20;1.88;;;;;;;20.31;46.08;101183.63;5072279;28;20044;-66
2022/08/29 02:49:22;;;;;;;7.75;1.73;;;;;;;20.28;46.15;101184.34;5057397;28;20407;-66
2022/08/29 02:51:50;;;;;;;6.18;1.70;;;;;;;20.28;46.37;101180.75;5056441;28;20057;-66
2022/08/29 02:54:17;;;;;;;5.70;1.80;;;;;;;20.17;46.27;101186.91;5057656;28;20045;-66
2022/08/29 02:56:44;;;;;;;9.07;1.67;;;;;;;20.21;46.15;101181.41;5038229;28;20388;-66
2022/08/29 02:59:13;;;;;;;7.57;1.70;;;;;;;20.12;46.08;101187.19;5057892;28;20048;-66
2022/08/29 03:01:40;;;;;;;6.40;2.03;;;;;;;20.05;46.77;101186.22;5057078;28;20053;-66
2022/08/29 03:04:07;;;;;;;7.18;1.88;;;;;;;20.01;46.56;101191.72;5064088;28;20048;-66
2022/08/29 03:06:35;;;;;;;5.78;1.67;;;;;;;19.94;46.96;101180.41;5073263;28;20064;-66
2022/08/29 03:09:02;;;;;;;7.00;1.73;;;;;;;19.94;47.32;101174.81;5039134;28;20061;-65
2022/08/29 03:11:32;;;;;;;5.55;1.35;;;;;;;19.96;47.01;101174.44;5056432;28;20087;-66
2022/08/29 03:14:00;;;;;;;4.18;1.65;;;;;;;19.80;47.58;101176.47;5072771;28;20063;-66
2022/08/29 03:16:28;;;;;;;9.88;1.75;;;;;;;20.02;47.74;101186.94;5038823;28;20049;-67
2022/08/29 03:18:56;;;;;;;8.30;1.77;;;;;;;20.06;47.41;101176.66;5072371;28;20052;-66
2022/08/29 03:21:25;;;;;;;7.20;1.70;;;;;;;20.11;46.70;101179.97;5056438;28;20059;-65
2022/08/29 03:23:55;;;;;;;7.97;1.77;;;;;;;19.85;47.05;101176.19;5074350;28;20049;-66
2022/08/29 03:26:24;;;;;;;6.13;1.77;;;;;;;19.77;48.04;101180.78;5075166;28;20044;-66
2022/08/29 03:28:51;;;;;;;11.23;1.90;;;;;;;19.76;47.84;101170.78;5076773;28;20402;-66
2022/08/29 03:31:19;;;;;;;5.78;1.67;;;;;;;19.86;48.55;101169.41;5076348;28;20079;-67
2022/08/29 03:33:47;;;;;;;5.95;1.90;;;;;;;19.94;47.57;101168.41;5075993;28;20067;-66
2022/08/29 03:36:14;;;;;;;5.97;1.95;;;;;;;20.03;47.31;101163.41;5076002;28;20064;-66
2022/08/29 03:38:42;;;;;;;5.53;1.65;;;;;;;19.82;47.36;101166.53;5058652;28;20048;-65
2022/08/29 03:41:10;;;;;;;7.03;1.60;;;;;;;19.95;47.52;101168.03;5058041;28;20055;-65
2022/08/29 03:43:37;;;;;;;5.88;1.77;;;;;;;19.97;47.42;101174.06;5076659;28;20063;-66
2022/08/29 03:46:04;;;;;;;5.68;1.30;;;;;;;19.71;47.98;101170.25;5041246;28;20052;-66
2022/08/29 03:48:32;;;;;;;7.53;1.70;;;;;;;19.75;47.78;101165.56;5076097;28;20049;-65
2022/08/29 03:51:00;;;;;;;7.43;1.50;;;;;;;19.82;47.87;101165.72;5075594;28;20048;-65
2022/08/29 03:53:27;;;;;;;7.65;1.75;;;;;;;19.75;47.89;101168.38;5076174;28;20048;-66
2022/08/29 03:55:56;;;;;;;4.47;1.80;;;;;;;19.53;48.43;101163.41;5075572;28;20384;-66
2022/08/29 03:58:24;;;;;;;7.07;1.88;;;;;;;19.57;48.17;101167.94;5058653;28;20053;-66
2022/08/29 04:00:51;;;;;;;5.28;1.77;;;;;;;19.52;48.65;101161.81;5075967;28;20071;-65
2022/08/29 04:03:19;;;;;;;8.07;2.03;;;;;;;19.45;49.06;101175.63;5076263;28;20056;-66
2022/08/29 04:05:51;;;;;;;9.02;2.00;;;;;;;19.44;48.87;101172.00;5064866;28;20048;-66
2022/08/29 04:08:21;;;;;;;7.03;2.00;;;;;;;19.61;48.23;101177.22;5055777;28;20064;-66
2022/08/29 04:10:49;;;;;;;6.72;1.98;;;;;;;19.46;48.52;101174.44;5023128;28;20061;-66
2022/08/29 04:13:16;;;;;;;7.70;1.90;;;;;;;19.41;48.93;101172.72;5056144;28;20048;-67
2022/08/29 04:15:43;;;;;;;4.57;1.92;;;;;;;19.46;48.69;101178.03;5055461;28;20053;-66
2022/08/29 04:18:11;;;;;;;5.60;1.83;;;;;;;19.53;48.74;101175.41;5038204;28;20056;-66
2022/08/29 04:20:43;;;;;;;6.30;1.67;;;;;;;19.51;48.66;101179.75;5055422;28;20060;-66
2022/08/29 04:23:12;;;;;;;6.25;1.70;;;;;;;19.45;48.86;101173.63;5044384;28;20049;-66
2022/08/29 04:25:40;;;;;;;7.13;2.10;;;;;;;19.44;48.85;101182.38;5074600;28;20052;-66
2022/08/29 04:28:11;;;;;;;8.10;1.95;;;;;;;19.54;48.50;101168.69;5057820;28;20425;-67
2022/08/29 04:30:39;;;;;;;8.95;1.80;;;;;;;19.16;49.54;101162.09;5057272;28;20059;-67
2022/08/29 04:33:06;;;;;;;8.27;1.98;;;;;;;19.19;49.20;101170.56;5075233;28;20045;-66
2022/08/29 04:35:36;;;;;;;5.80;2.13;;;;;;;19.20;49.43;101160.16;5074832;28;20060;-65
2022/08/29 04:38:03;;;;;;;6.05;1.80;;;;;;;19.28;49.14;101168.41;5075390;28;20480;-66
2022/08/29 04:40:31;;;;;;;7.78;2.35;;;;;;;19.26;49.43;101167.94;5057324;28;20053;-66
2022/08/29 04:42:58;;;;;;;8.82;1.95;;;;;;;19.27;49.33;101166.75;5057576;28;20051;-66
2022/08/29 04:45:27;;;;;;;9.45;1.90;;;;;;;19.56;48.59;101174.69;5074927;28;20711;-66
2022/08/29 04:47:54;;;;;;;5.22;1.67;;;;;;;19.39;48.81;101175.06;5075259;28;20052;-67
2022/08/29 04:50:22;;;;;;;9.23;1.83;;;;;;;19.36;49.16;101178.59;5073782;28;20411;-66
2022/08/29 04:52:54;;;;;;;7.80;1.80;;;;;;;19.69;48.62;101183.78;5037286;28;20053;-66
2022/08/29 04:55:22;;;;;;;7.38;1.70;;;;;;;19.51;48.46;101188.16;5054297;28;20045;-66
2022/08/29 04:57:52;;;;;;;6.00;2.28;;;;;;;19.58;48.29;101188.31;5055351;28;20053;-65
2022/08/29 05:00:22;;;;;;;5.03;1.90;;;;;;;19.52;48.95;101192.56;5054826;28;20518;-65
2022/08/29 05:02:49;;;;;;;12.07;2.13;;;;;;;19.58;48.15;101191.91;5036794;28;20060;-66
2022/08/29 05:05:16;;;;;;;8.48;2.20;;;;;;;19.69;48.37;101195.78;5078847;28;20051;-66
2022/08/29 05:07:45;;;;;;;6.88;1.90;;;;;;;19.76;48.50;101190.34;5054760;28;20072;-66
2022/08/29 05:10:16;;;;;;;8.88;1.95;;;;;;;19.50;48.43;101198.50;5054573;28;20056;-66
2022/08/29 05:12:50;;;;;;;6.35;2.05;;;;;;;19.42;48.99;101201.50;5054340;28;20067;-66
2022/08/29 05:15:17;;;;;;;9.93;2.38;;;;;;;19.30;49.25;101205.16;5054472;28;20061;-67
2022/08/29 05:17:44;;;;;;;10.00;2.08;;;;;;;19.38;49.70;101209.78;5037225;28;20060;-66
2022/08/29 05:20:12;;;;;;;8.75;2.42;;;;;;;19.28;49.40;101204.72;5054766;28;20526;-66
2022/08/29 05:22:40;;;;;;;11.02;2.28;;;;;;;19.44;49.37;101211.13;5039072;28;20052;-66
2022/08/29 05:25:10;;;;;;;10.57;2.13;;;;;;;19.53;48.80;101206.16;5074532;28;20053;-67
2022/08/29 05:27:43;;;;;;;9.07;2.10;;;;;;;19.65;48.61;101210.84;5074455;28;20060;-66
2022/08/29 05:30:11;;;;;;;6.05;2.13;;;;;;;19.71;48.34;101215.81;5073551;28;20060;-66
2022/08/29 05:32:38;;;;;;;8.55;2.65;;;;;;;19.65;48.57;101219.25;5074300;28;20056;-67
2022/08/29 05:35:05;;;;;;;6.03;2.17;;;;;;;19.70;48.20;101218.97;5074515;28;20048;-67
2022/08/29 05:37:33;;;;;;;9.00;1.73;;;;;;;19.58;48.37;101227.44;5073725;28;20048;-68
2022/08/29 05:40:01;;;;;;;12.63;2.05;;;;;;;19.88;48.28;101222.97;5056533;28;20055;-66
2022/08/29 05:42:28;;;;;;;10.45;2.00;;;;;;;19.80;48.29;101236.00;5074007;28;20052;-66
2022/08/29 05:44:55;;;;;;;11.20;2.47;;;;;;;19.81;47.81;101229.22;5074269;28;20048;-66
2022/08/29 05:47:24;;;;;;;10.65;2.55;;;;;;;19.77;47.88;101233.13;5054685;28;20496;-66
2022/08/29 05:49:51;;;;;;;15.27;2.50;;;;;;;19.85;48.16;101235.72;5074338;28;20411;-66
2022/08/29 05:52:20;;;;;;;16.05;2.58;;;;;;;19.92;47.47;101237.84;5073767;28;20053;-66
2022/08/29 05:54:47;;;;;;;16.33;2.42;;;;;;;19.88;47.37;101231.34;5055710;28;20075;-67
2022/08/29 05:57:18;;;;;;;8.98;2.20;;;;;;;19.62;48.30;101233.91;5022561;28;20057;-66
2022/08/29 05:59:47;;;;;;;6.75;1.90;;;;;;;19.75;48.59;101238.25;5036666;28;20505;-66
2022/08/29 06:02:14;;;;;;;7.93;2.75;;;;;;;19.95;47.60;101242.72;5036427;28;20534;-66
2022/08/29 06:04:42;;;;;;;17.05;3.25;;;;;;;19.98;47.66;101236.38;5052977;28;20051;-67
2022/08/29 06:07:10;;;;;;;12.10;2.13;;;;;;;19.94;47.90;101236.34;5026803;28;20053;-67
2022/08/29 06:09:40;;;;;;;12.98;2.63;;;;;;;19.97;47.54;101235.59;5053941;28;20072;-67
2022/08/29 06:12:08;;;;;;;8.70;2.45;;;;;;;19.69;47.71;101248.88;5036121;28;20049;-66
2022/08/29 06:14:36;;;;;;;8.38;2.50;;;;;;;19.92;47.71;101244.28;5002900;28;20056;-67
2022/08/29 06:17:04;;;;;;;7.95;2.30;;;;;;;19.96;48.01;101245.13;5035593;28;20447;-67
2022/08/29 06:19:35;;;;;;;8.13;2.30;;;;;;;19.89;47.92;101235.78;5053459;28;20052;-67
2022/08/29 06:22:04;;;;;;;9.85;2.40;;;;;;;19.89;48.34;101246.97;5053472;28;20064;-67
2022/08/29 06:24:37;;;;;;;12.00;2.55;;;;;;;19.94;47.79;101247.50;5072022;28;20044;-67
2022/08/29 06:27:05;;;;;;;7.28;2.45;;;;;;;19.96;48.03;101255.53;5055307;28;20052;-68
2022/08/29 06:29:32;;;;;;;19.00;2.92;;;;;;;19.72;48.47;101259.34;5039594;28;20056;-66
2022/08/29 06:32:11;;;;;;;12.73;2.72;;;;;;;19.86;48.28;101259.69;5057364;28;20436;-66
2022/08/29 06:34:39;;;;;;;9.45;2.47;;;;;;;19.89;48.26;101260.97;5055827;28;20499;-66
2022/08/29 06:37:06;;;;;;;8.48;2.33;;;;;;;19.77;48.64;101258.28;5054788;28;20080;-66
2022/08/29 06:39:33;;;;;;;16.25;5.15;;;;;;;20.02;47.80;101260.47;5073970;28;20056;-67
2022/08/29 06:42:01;;;;;;;13.00;3.03;;;;;;;20.04;47.74;101255.34;5073570;28;20051;-67
2022/08/29 06:44:30;;;;;;;8.02;2.60;;;;;;;19.87;48.58;101257.72;5055978;28;20048;-66
2022/08/29 06:46:58;;;;;;;9.65;2.60;;;;;;;19.85;47.98;101254.47;5072420;28;20539;-67
2022/08/29 06:49:26;;;;;;;11.70;2.40;;;;;;;19.93;48.37;101254.25;5073800;28;20055;-66
2022/08/29 06:51:54;;;;;;;14.43;2.83;;;;;;;20.01;48.33;101258.06;5055295;28;20542;-66
2022/08/29 06:54:26;;;;;;;7.72;2.38;;;;;;;19.78;48.47;101254.28;5055665;28;20546;-67
2022/08/29 06:56:55;;;;;;;10.80;2.58;;;;;;;19.86;48.15;101256.06;5056013;28;20053;-65
2022/08/29 06:59:23;;;;;;;11.38;2.90;;;;;;;19.90;48.31;101256.97;5059692;28;20055;-65
2022/08/29 07:01:50;;;;;;;14.77;3.03;;;;;;;19.89;48.20;101261.75;5059190;28;20059;-66
2022/08/29 07:04:18;;;;;;;9.13;2.50;;;;;;;19.86;48.44;101264.47;5082214;28;20040;-65
2022/08/29 07:06:48;;;;;;;15.40;2.72;;;;;;;19.84;48.26;101267.63;5070010;28;20056;-64
2022/08/29 07:09:15;;;;;;;11.85;2.25;;;;;;;19.54;48.73;101274.03;5039071;28;20507;-65
2022/08/29 07:11:43;;;;;;;17.60;2.53;;;;;;;19.47;49.41;101271.06;5056502;28;20570;-64
2022/08/29 07:14:11;;;;;;;11.48;2.40;;;;;;;19.54;48.57;101263.69;5039547;28;20515;-65
2022/08/29 07:16:39;;;;;;;9.95;2.55;;;;;;;19.52;48.48;101259.63;5056612;28;20049;-66
2022/08/29 07:19:08;;;;;;;11.68;2.75;;;;;;;19.69;48.63;101262.88;5038970;28;20049;-68
2022/08/29 07:21:37;;;;;;;10.77;2.38;;;;;;;19.79;48.15;101264.28;5056566;28;20052;-67
2022/08/29 07:24:05;;;;;;;11.43;2.42;;;;;;;19.72;48.29;101264.94;5071344;28;20056;-67
2022/08/29 07:26:37;;;;;;;10.38;2.58;;;;;;;19.72;48.07;101270.53;5058903;28;20059;-66
2022/08/29 07:29:09;;;;;;;11.65;2.67;;;;;;;19.84;48.44;101264.03;5076821;28;20060;-67
2022/08/29 07:31:37;;;;;;;9.65;2.55;;;;;;;19.82;48.49;101258.78;5076315;28;20060;-67
2022/08/29 07:34:05;;;;;;;9.75;2.53;;;;;;;19.73;48.11;101263.78;5058685;28;20059;-67
2022/08/29 07:36:33;;;;;;;8.68;2.85;;;;;;;19.95;48.02;101262.28;5076235;28;20059;-67
2022/08/29 07:39:04;;;;;;;26.63;3.53;;;;;;;20.22;47.32;101257.75;5076486;28;20049;-66
2022/08/29 07:41:31;;;;;;;17.67;3.17;;;;;;;20.04;47.71;101254.53;5075722;28;20056;-66
2022/08/29 07:43:58;;;;;;;18.63;3.22;;;;;;;20.25;47.55;101265.41;5076750;28;20052;-66
2022/08/29 07:46:26;;;;;;;14.05;3.45;;;;;;;20.34;47.10;101263.22;5076235;28;20071;-66
2022/08/29 07:48:53;;;;;;;17.10;3.35;;;;;;;20.32;47.40;101260.78;5076173;28;20052;-66
2022/08/29 07:51:22;;;;;;;13.68;3.22;;;;;;;20.20;47.13;101260.94;5075779;28;20059;-66
2022/08/29 07:53:50;;;;;;;16.73;2.72;;;;;;;20.21;47.10;101264.53;5058574;28;20044;-67
2022/08/29 07:56:24;;;;;;;12.70;2.97;;;;;;;20.01;47.48;101264.44;5075653;28;20116;-66
2022/08/29 07:58:53;;;;;;;11.70;3.63;;;;;;;20.35;47.13;101264.84;5075882;28;20053;-67
2022/08/29 08:01:20;;;;;;;15.77;3.13;;;;;;;20.45;46.51;101267.88;5057874;28;20052;-67
2022/08/29 08:03:49;;;;;;;11.05;2.70;;;;;;;20.41;46.70;101267.00;5058709;28;20673;-67
2022/08/29 08:06:19;;;;;;;11.25;3.00;;;;;;;20.43;46.31;101261.84;5078522;28;20056;-66
2022/08/29 08:08:47;;;;;;;9.50;2.70;;;;;;;20.43;46.33;101270.25;5055091;28;20067;-67
2022/08/29 08:11:14;;;;;;;9.20;2.70;;;;;;;20.29;46.94;101263.50;5063657;28;20064;-67
2022/08/29 08:13:42;;;;;;;9.60;2.28;;;;;;;20.32;47.00;101254.38;5075570;28;20056;-66
2022/08/29 08:16:13;;;;;;;14.60;2.30;;;;;;;20.34;47.09;101254.84;5057196;28;20059;-66
2022/08/29 08:18:42;;;;;;;13.40;3.20;;;;;;;20.29;46.81;101252.31;5057173;28;20052;-66
2022/08/29 08:21:10;;;;;;;13.43;2.92;;;;;;;20.49;47.00;101259.56;5074565;28;20075;-67
2022/08/29 08:23:38;;;;;;;18.85;3.10;;;;;;;20.52;46.38;101247.66;5046803;28;20048;-67
2022/08/29 08:26:07;;;;;;;9.90;2.80;;;;;;;20.59;46.61;101248.59;5054977;28;20048;-66
2022/08/29 08:28:35;;;;;;;8.18;2.42;;;;;;;20.69;45.93;101248.03;5020570;28;20059;-66
2022/08/29 08:31:04;;;;;;;9.20;2.60;;;;;;;20.79;46.43;101241.81;5054985;28;20048;-67
2022/08/29 08:33:34;;;;;;;12.82;2.28;;;;;;;20.80;45.91;101242.63;5038004;28;20053;-68
2022/08/29 08:36:03;;;;;;;9.18;2.38;;;;;;;20.68;46.16;101240.78;5037075;28;20081;-66
2022/08/29 08:38:30;;;;;;;8.13;2.78;;;;;;;20.77;46.98;101232.16;5055441;28;20049;-67
2022/08/29 08:41:09;;;;;;;12.57;2.92;;;;;;;21.03;45.94;101243.50;5054811;28;20531;-67
2022/08/29 08:43:59;;;;;;;14.48;2.75;;;;;;;20.99;46.07;101251.03;5037940;28;20053;-66
2022/08/29 08:46:34;;;;;;;7.90;2.70;;;;;;;20.87;46.13;101253.97;5037248;28;20048;-66
2022/08/29 08:49:07;;;;;;;14.43;2.83;;;;;;;21.00;46.33;101258.25;5037943;28;20056;-67
2022/08/29 08:51:37;;;;;;;10.98;3.10;;;;;;;21.20;45.96;101243.84;5037010;28;20064;-67
2022/08/29 08:54:07;;;;;;;14.98;3.92;;;;;;;21.49;45.05;101247.16;5037111;28;20531;-69
2022/08/29 08:56:45;;;;;;;11.32;3.20;;;;;;;21.63;44.71;101241.78;5020319;28;20161;-66
2022/08/29 08:59:23;;;;;;;12.75;3.33;;;;;;;21.61;44.51;101239.38;5037093;28;20466;-66
2022/08/29 09:02:05;;;;;;;15.75;3.20;;;;;;;21.62;44.74;101243.78;5054650;28;20503;-66
2022/08/29 09:04:52;;;;;;;11.38;3.10;;;;;;;21.60;44.92;101245.34;5050965;28;20515;-67
2022/08/29 09:07:38;;;;;;;20.48;3.90;;;;;;;21.65;44.99;101247.84;5058235;28;20052;-67
2022/08/29 09:10:55;;;;;;;14.60;3.50;;;;;;;21.78;44.26;101252.91;5036791;28;20385;-66
2022/08/29 09:13:46;;;;;;;13.90;3.45;;;;;;;21.80;44.64;101252.50;4973271;28;20058;-66
2022/08/29 09:16:30;;;;;;;15.10;2.85;;;;;;;21.69;44.58;101248.72;4980704;28;20509;-67
2022/08/29 09:19:02;;;;;;;18.50;3.65;;;;;;;21.83;44.33;101249.75;5053670;28;20048;-67
2022/08/29 09:21:33;;;;;;;17.67;3.70;;;;;;;21.85;44.36;101250.22;5073857;28;20059;-67
2022/08/29 09:24:13;;;;;;;13.60;3.22;;;;;;;22.01;44.11;101245.25;5059970;28;20075;-66
2022/08/29 09:26:40;;;;;;;11.45;2.95;;;;;;;21.87;44.54;101247.03;5036329;28;20496;-65
2022/08/29 09:29:10;;;;;;;6.50;2.45;;;;;;;21.82;44.75;101248.16;5054511;28;20053;-67
2022/08/29 09:31:37;;;;;;;;;;;;;;;21.81;44.95;101245.75;5036100;28;20049;-67
2022/08/29 09:34:14;;;;;;;14.75;3.60;;;;;;;21.97;44.71;101246.38;5052682;28;19921;-67
2022/08/29 09:36:48;;;;;;;11.23;3.00;;;;;;;22.08;44.53;101238.94;5053734;28;20045;-67
2022/08/29 09:39:25;;;;;;;13.10;3.72;;;;;;;22.30;43.97;101244.47;5054332;28;20412;-67
2022/08/29 09:42:16;;;;;;;13.35;3.42;;;;;;;22.42;43.81;101246.22;5053947;28;20048;-66
2022/08/29 09:44:58;;;;;;;10.82;2.60;;;;;;;22.37;44.09;101234.53;5036030;28;20369;-67
2022/08/29 09:47:31;;;;;;;15.85;3.63;;;;;;;22.22;44.03;101239.13;5036311;28;20049;-66
2022/08/29 09:50:23;;;;;;;11.07;3.22;;;;;;;22.14;44.56;101232.59;5036657;28;20057;-66
2022/08/29 09:52:54;;;;;;;16.88;3.42;;;;;;;22.39;44.23;101232.16;5019352;28;20052;-68
2022/08/29 09:55:23;;;;;;;16.73;3.00;;;;;;;22.52;44.15;101225.94;5053362;28;20049;-66
2022/08/29 09:57:54;;;;;;;17.33;3.60;;;;;;;22.44;44.04;101238.22;5035375;28;20075;-67
2022/08/29 10:00:32;;;;;;;20.05;3.67;;;;;;;22.46;43.95;101238.66;5053426;28;20295;-67
2022/08/29 10:03:02;;;;;;;16.02;3.40;;;;;;;22.72;43.55;101229.38;5053807;28;20607;-66
2022/08/29 10:05:44;;;;;;;15.95;2.92;;;;;;;22.58;43.40;101234.84;5059158;28;20052;-66
2022/08/29 10:08:33;;;;;;;12.95;2.85;;;;;;;22.59;43.79;101228.03;5036538;28;20522;-67
2022/08/29 10:11:21;;;;;;;11.23;2.90;;;;;;;22.87;42.77;101231.19;5036207;28;20491;-67
2022/08/29 10:14:37;;;;;;;10.43;2.90;;;;;;;22.99;42.77;101226.13;5020025;28;20060;-66
2022/08/29 10:20:43;;;;;;;10.88;2.88;;;;;;;23.03;42.69;101221.31;5040972;28;20053;-66
2022/08/29 10:23:20;;;;;;;11.07;3.10;;;;;;;23.03;42.89;101228.97;5066961;28;20053;-67
2022/08/29 10:25:48;;;;;;;12.27;3.65;;;;;;;23.06;42.81;101212.16;5035895;28;20045;-68
2022/08/29 10:28:19;;;;;;;10.55;3.60;;;;;;;23.07;42.88;101219.38;5019535;28;20064;-66
2022/08/29 10:30:56;;;;;;;13.27;3.58;;;;;;;22.91;43.03;101218.78;5035224;28;20072;-67
2022/08/29 10:33:37;;;;;;;12.93;4.03;;;;;;;23.14;42.76;101215.81;5039352;28;20061;-67
2022/08/29 10:36:16;;;;;;;8.55;3.03;;;;;;;23.05;42.90;101216.13;5057191;28;20064;-68
2022/08/29 10:39:11;;;;;;;11.63;3.08;;;;;;;23.01;42.90;101208.88;5057692;28;20061;-67
2022/08/29 10:41:59;;;;;;;11.55;3.63;;;;;;;23.12;43.10;101215.38;5056853;28;20061;-66
2022/08/29 10:45:02;;;;;;;9.18;2.97;;;;;;;23.25;42.88;101211.94;5039207;28;20048;-67
2022/08/29 10:47:49;;;;;;;12.43;3.70;;;;;;;23.24;42.90;101212.31;5056689;28;20053;-67
2022/08/29 10:50:42;;;;;;;18.70;3.42;;;;;;;23.31;42.76;101207.59;5057120;28;20063;-66
2022/08/29 10:53:19;;;;;;;12.48;4.07;;;;;;;23.47;42.61;101193.25;5040021;28;20163;-68
2022/08/29 10:56:08;;;;;;;14.07;4.80;;;;;;;23.55;42.57;101189.34;5039025;28;20516;-66
2022/08/29 10:58:59;;;;;;;13.60;4.70;;;;;;;23.73;42.67;101193.06;5057259;28;20060;-65
2022/08/29 11:01:34;;;;;;;9.75;3.50;;;;;;;23.63;42.45;101193.00;5038730;28;20404;-65
2022/08/29 11:04:09;;;;;;;10.82;6.05;;;;;;;23.60;42.46;101185.34;5062203;28;20674;-66
2022/08/29 11:06:42;;;;;;;18.30;10.73;;;;;;;23.75;42.55;101201.94;5055101;28;20048;-67
2022/08/29 11:09:20;;;;;;;9.98;5.35;;;;;;;23.84;41.95;101196.78;5039678;28;20472;-68
2022/08/29 11:12:04;;;;;;;10.68;2.95;;;;;;;24.00;41.52;101196.50;5039277;28;20059;-68
2022/08/29 11:14:40;;;;;;;10.40;4.07;;;;;;;24.05;41.80;101188.50;5039210;28;20053;-67
2022/08/29 11:17:09;;;;;;;14.02;3.90;;;;;;;24.09;41.79;101188.53;5054129;28;20051;-67
2022/08/29 11:19:49;;;;;;;24.30;4.60;;;;;;;24.12;41.52;101211.06;5026231;28;20053;-67
2022/08/29 11:22:21;;;;;;;23.50;4.88;;;;;;;24.08;41.48;101192.53;5008798;28;20053;-67
2022/08/29 11:24:56;;;;;;;18.80;5.53;;;;;;;24.00;41.97;101199.31;5038901;28;20049;-67
2022/08/29 11:27:48;;;;;;;22.88;4.40;;;;;;;24.08;42.06;101192.53;5038452;28;20136;-69
2022/08/29 11:30:23;;;;;;;16.77;4.25;;;;;;;24.09;41.67;101182.91;5022320;28;20519;-68
2022/08/29 11:33:00;;;;;;;10.57;4.78;;;;;;;24.20;41.86;101180.94;5039301;28;20056;-67
2022/08/29 11:35:39;;;;;;;15.77;4.95;;;;;;;24.34;41.36;101178.19;5056234;28;20721;-68
2022/08/29 11:38:28;;;;;;;13.73;3.80;;;;;;;24.38;40.79;101179.81;5038991;28;20053;-67
2022/08/29 11:41:25;;;;;;;9.48;3.22;;;;;;;24.32;41.14;101175.75;5038148;28;20061;-66
2022/08/29 11:44:06;;;;;;;11.13;3.67;;;;;;;24.37;40.87;101172.56;5055257;28;20045;-67
2022/08/29 11:46:43;;;;;;;11.63;4.30;;;;;;;24.42;41.67;101180.66;5038323;28;20049;-68
2022/08/29 11:49:36;;;;;;;14.57;3.75;;;;;;;24.45;41.43;101179.84;5056463;28;20060;-68